Terminal Aerodrome Forecast
Issued by NWS Tallahassee, FL

Home | Current Version | Previous Version | Text Only | Print | Product List | Glossary On
Versions: 1 2 3 4 5 6 7 8 9 10 11 12
000
FTUS42 KTAE 282320
TAFTLH
TAF
KTLH 282320Z 2900/2924 30004KT P6SM FEW060
     FM292100 18007KT 6SM TSRA BKN040CB=

USA.gov is the U.S. government's official web portal to all federal, state and local government web resources and services.